Time;durP1;ratioP1;P1;durP2;ratioP2;P2;SDS_P1;SDS_P2;PMS_P1;PMS_P2;Temp;Humidity;BMP_temperature;BMP_pressure;BME280_temperature;BME280_humidity;BME280_pressure;Samples;Min_cycle;Max_cycle;Signal;HPM_P1;HPM_P2
2022/08/03 01:40:05;;;;;;;;;0.67;0.67;;;;;25.54;82.46;100144.94;6262990;22;45292;-96
2022/08/03 04:03:23;;;;;;;;;2.00;0.33;;;;;24.03;87.76;100113.53;6269463;22;45179;-96
2022/08/03 04:25:04;;;;;;;;;1.00;1.00;;;;;23.72;88.67;100101.66;6353385;22;45295;-96
2022/08/03 04:38:17;;;;;;;;;0.67;0.00;;;;;23.65;88.85;100100.03;6303950;22;45969;-95
2022/08/03 04:51:33;;;;;;;;;1.00;1.00;;;;;23.78;89.68;100108.72;6296539;22;46243;-96
2022/08/03 04:54:00;;;;;;;;;0.33;0.33;;;;;23.68;89.52;100085.69;6301018;22;44731;-96
2022/08/03 04:57:00;;;;;;;;;2.00;2.00;;;;;23.86;89.76;100111.22;6301333;22;44791;-96
2022/08/03 05:00:04;;;;;;;;;2.00;2.00;;;;;23.75;89.83;100088.22;6299010;22;44814;-96
2022/08/03 05:03:00;;;;;;;;;0.00;0.00;;;;;23.79;89.82;100086.34;6303395;22;45740;-96
2022/08/03 05:06:01;;;;;;;;;1.33;1.00;;;;;23.92;90.09;100091.44;6333774;22;44822;-96
2022/08/03 05:12:15;;;;;;;;;2.00;2.00;;;;;24.10;90.60;100100.88;6328381;22;44761;-96
2022/08/03 05:15:17;;;;;;;;;1.67;1.00;;;;;24.00;89.94;100098.41;6334514;22;46719;-96
2022/08/03 05:18:36;;;;;;;;;3.00;3.00;;;;;24.24;89.86;100122.03;6307166;22;44728;-96
2022/08/03 05:21:47;;;;;;;;;2.00;2.00;;;;;24.19;89.49;100103.38;6334463;22;44680;-96
2022/08/03 05:28:00;;;;;;;;;2.00;2.00;;;;;24.31;89.30;100099.56;6331173;22;45107;-96
2022/08/03 05:44:37;;;;;;;;;2.33;2.33;;;;;25.02;88.47;100126.59;6291892;22;45008;-96
2022/08/03 08:43:19;;;;;;;;;5.00;3.33;;;;;30.60;74.31;100752.75;6305013;22;46287;-92
2022/08/03 08:45:48;;;;;;;;;3.00;2.33;;;;;30.73;74.18;100769.41;6284722;22;45818;-92
2022/08/03 08:48:16;;;;;;;;;5.00;4.00;;;;;30.81;73.57;100795.28;6257523;22;45365;-93
2022/08/03 08:50:44;;;;;;;;;4.33;4.00;;;;;30.86;73.42;100796.00;6283950;22;45346;-93
2022/08/03 08:53:12;;;;;;;;;3.67;3.00;;;;;30.94;73.34;100807.44;6278667;22;46523;-93
2022/08/03 08:55:38;;;;;;;;;5.00;5.00;;;;;31.04;73.15;100816.09;6279497;22;45157;-93
2022/08/03 08:58:09;;;;;;;;;6.00;5.33;;;;;31.15;72.11;100822.91;6253778;22;45192;-93
2022/08/03 09:00:35;;;;;;;;;3.67;3.67;;;;;31.25;72.15;100840.56;6307222;22;45272;-93
2022/08/03 09:03:00;;;;;;;;;5.00;3.00;;;;;31.31;72.45;100842.13;6277104;22;47436;-93
2022/08/03 09:05:26;;;;;;;;;3.33;3.00;;;;;31.42;72.20;100847.09;6278336;22;45462;-93
2022/08/03 09:07:52;;;;;;;;;3.33;3.33;;;;;31.47;71.91;100849.63;6277771;22;45306;-93
2022/08/03 09:10:20;;;;;;;;;5.67;4.00;;;;;31.59;71.35;100870.84;6277537;22;45567;-93
2022/08/03 09:12:48;;;;;;;;;2.67;2.67;;;;;31.69;70.75;100894.88;6276918;22;48210;-93
2022/08/03 09:15:18;;;;;;;;;3.00;1.33;;;;;31.77;70.70;100887.28;6276624;22;46027;-94
2022/08/03 09:17:43;;;;;;;;;3.00;3.00;;;;;31.83;70.45;100902.44;6284157;22;45199;-92
2022/08/03 09:20:09;;;;;;;;;2.00;2.00;;;;;31.93;70.52;100902.94;6305529;22;45315;-93
2022/08/03 09:22:35;;;;;;;;;2.67;2.67;;;;;32.01;69.83;100927.88;6304303;22;46535;-93
2022/08/03 09:25:10;;;;;;;;;4.33;3.67;;;;;32.11;69.91;100942.84;6276851;22;45189;-93
2022/08/03 09:27:45;;;;;;;;;5.67;4.00;;;;;32.20;69.95;100947.03;6277091;22;45208;-93
2022/08/03 09:30:13;;;;;;;;;3.33;3.00;;;;;32.26;69.62;100964.00;6277807;22;45320;-93
2022/08/03 09:32:39;;;;;;;;;3.00;3.00;;;;;32.37;69.02;100966.25;6305571;22;46162;-93
2022/08/03 09:35:05;;;;;;;;;2.50;2.00;;;;;32.44;69.09;100981.31;6279481;22;45298;-93
2022/08/03 09:37:30;;;;;;;;;2.00;2.00;;;;;32.54;68.40;100988.13;6282731;22;45384;-93
2022/08/03 09:39:55;;;;;;;;;3.33;3.00;;;;;32.60;68.49;100986.94;6282595;22;56018;-93
2022/08/03 09:42:23;;;;;;;;;4.00;3.00;;;;;32.70;68.12;100992.91;6309405;22;45520;-93
2022/08/03 09:44:50;;;;;;;;;3.00;2.00;;;;;32.80;67.35;101008.78;6284293;22;45215;-93
2022/08/03 09:47:36;;;;;;;;;2.67;2.67;;;;;32.94;67.94;101010.84;6285153;22;45285;-94
2022/08/03 09:50:07;;;;;;;;;2.00;2.00;;;;;33.09;67.37;101012.88;6287968;22;45563;-94
2022/08/03 09:52:38;;;;;;;;;1.33;1.33;;;;;33.30;67.69;101003.81;6314391;22;45162;-93
2022/08/03 09:55:12;;;;;;;;;9.00;9.00;;;;;33.61;66.89;101018.66;6286650;22;45412;-92
2022/08/03 09:57:39;;;;;;;;;5.00;4.00;;;;;34.01;67.59;101017.69;6284338;22;45317;-92
2022/08/03 10:00:13;;;;;;;;;3.67;3.67;;;;;34.30;65.99;101039.81;6280546;22;45331;-93
2022/08/03 10:02:41;;;;;;;;;1.00;1.00;;;;;34.57;65.29;101057.59;6279085;22;48302;-93
2022/08/03 10:05:08;;;;;;;;;4.00;3.00;;;;;34.83;64.28;101070.81;6279516;22;45309;-93
2022/08/03 10:07:47;;;;;;;;;2.67;2.00;;;;;35.53;64.57;101069.84;6278150;22;45322;-93
2022/08/03 10:10:13;;;;;;;;;1.00;1.00;;;;;36.76;64.02;101071.03;6306836;22;45618;-94
2022/08/03 10:12:39;;;;;;;;;3.00;2.00;;;;;38.36;63.89;101076.47;6277397;22;46986;-93
2022/08/03 10:15:06;;;;;;;;;5.00;4.00;;;;;39.73;62.16;101090.72;6277590;22;45322;-92
2022/08/03 10:17:31;;;;;;;;;2.00;2.00;;;;;41.14;61.14;101098.47;6279600;22;45396;-93
2022/08/03 10:19:58;;;;;;;;;2.00;2.00;;;;;42.64;58.83;101114.75;6306571;22;45397;-93
2022/08/03 10:22:31;;;;;;;;;2.00;2.00;;;;;43.90;57.79;101121.22;6307506;22;45409;-94
2022/08/03 10:25:07;;;;;;;;;2.33;1.33;;;;;44.96;52.72;101140.00;6305721;22;45348;-93
2022/08/03 10:27:39;;;;;;;;;2.00;2.00;;;;;45.68;52.26;101129.41;6304955;22;45250;-92
2022/08/03 10:30:07;;;;;;;;;2.00;1.67;;;;;46.00;50.87;101136.41;6277569;22;45473;-93
2022/08/03 10:32:40;;;;;;;;;1.00;1.00;;;;;46.09;49.68;101131.81;6305536;22;45633;-93
2022/08/03 10:35:15;;;;;;;;;0.33;0.33;;;;;46.32;48.51;101128.56;6277450;22;45563;-94
2022/08/03 10:38:02;;;;;;;;;1.00;1.00;;;;;46.92;49.44;101126.13;6306169;22;45238;-93
2022/08/03 10:40:30;;;;;;;;;1.00;1.00;;;;;47.43;47.83;101119.84;6278734;22;45270;-94
2022/08/03 10:43:06;;;;;;;;;1.00;1.00;;;;;47.76;47.52;101118.22;6303664;22;46472;-94
2022/08/03 10:45:35;;;;;;;;;1.00;1.00;;;;;48.18;47.19;101118.31;6278101;22;45288;-93
2022/08/03 10:48:01;;;;;;;;;2.00;2.00;;;;;48.68;46.03;101117.47;6277522;22;45379;-93
2022/08/03 10:50:27;;;;;;;;;2.00;2.00;;;;;49.68;45.26;101119.97;6304731;22;45295;-94
2022/08/03 10:52:57;;;;;;;;;2.00;2.00;;;;;50.95;45.12;101121.56;6305633;22;45632;-94
2022/08/03 10:58:46;;;;;;;;;1.00;1.00;;;;;54.18;41.91;101120.06;6305007;22;45195;-94
2022/08/03 11:01:12;;;;;;;;;2.00;2.00;;;;;55.38;40.04;101113.66;6261130;22;45235;-94
2022/08/03 11:03:52;;;;;;;;;0.67;0.67;;;;;56.54;38.24;101109.16;6274952;22;48238;-94
2022/08/03 11:06:23;;;;;;;;;1.67;1.67;;;;;57.23;36.47;101111.00;6276176;22;45219;-94
2022/08/03 11:09:09;;;;;;;;;0.00;0.00;;;;;57.98;35.58;101124.06;6276638;22;45307;-95
2022/08/03 11:11:37;;;;;;;;;1.67;1.67;;;;;58.79;34.78;101118.91;6280981;22;45520;-92
2022/08/03 11:14:13;;;;;;;;;1.67;1.67;;;;;59.56;34.06;101111.47;6304595;22;45515;-93
2022/08/03 11:16:42;;;;;;;;;1.00;1.00;;;;;60.14;32.80;101102.00;6304301;22;45262;-93
2022/08/03 11:19:10;;;;;;;;;2.33;2.33;;;;;60.76;32.05;101098.38;6304894;22;45417;-92
2022/08/03 11:21:50;;;;;;;;;1.00;1.00;;;;;61.40;32.50;101096.03;6276686;22;45958;-93
2022/08/03 11:24:35;;;;;;;;;1.00;1.00;;;;;62.03;31.21;101102.28;6276904;22;48027;-93
2022/08/03 11:27:25;;;;;;;;;0.33;0.33;;;;;62.54;30.61;101102.91;6304583;22;45182;-94
2022/08/03 11:30:16;;;;;;;;;0.00;0.00;;;;;63.11;29.97;101105.16;6309069;22;45348;-93
2022/08/03 11:32:47;;;;;;;;;2.00;2.00;;;;;63.57;29.71;101095.84;6309474;22;45267;-94
2022/08/03 11:35:18;;;;;;;;;1.00;1.00;;;;;64.01;29.22;101087.03;6308447;22;45489;-95
2022/08/03 11:38:07;;;;;;;;;2.00;2.00;;;;;64.54;28.30;101082.09;6308528;22;45299;-93
2022/08/03 11:40:46;;;;;;;;;1.00;1.00;;;;;64.96;28.11;101079.00;6280804;22;45569;-94
2022/08/03 11:43:20;;;;;;;;;1.00;1.00;;;;;65.31;27.73;101081.94;6284312;22;45364;-92
2022/08/03 11:45:59;;;;;;;;;2.00;1.00;;;;;65.63;26.82;101082.56;6284783;22;46282;-93
2022/08/03 11:48:32;;;;;;;;;1.00;1.00;;;;;65.88;27.06;101072.06;6284410;22;45769;-94
2022/08/03 11:50:59;;;;;;;;;1.00;1.00;;;;;66.17;25.14;101071.19;6285595;22;45400;-93
2022/08/03 11:53:24;;;;;;;;;1.00;1.00;;;;;66.46;26.89;101071.44;6308174;22;45266;-93
2022/08/03 11:55:49;;;;;;;;;3.00;2.00;;;;;66.68;25.65;101073.72;6276266;22;47078;-93
2022/08/03 11:58:21;;;;;;;;;1.33;1.33;;;;;66.86;24.55;101074.88;6275823;22;45745;-93
2022/08/03 12:00:48;;;;;;;;;0.00;0.00;;;;;67.12;25.71;101078.53;6277301;22;45348;-94
2022/08/03 12:03:16;;;;;;;;;3.00;2.00;;;;;67.47;25.28;101072.53;6302908;22;45615;-93
2022/08/03 12:05:51;;;;;;;;;1.00;1.00;;;;;67.77;25.41;101073.13;6276108;22;47159;-93
2022/08/03 12:08:27;;;;;;;;;1.00;1.00;;;;;68.00;24.04;101063.88;6275918;22;45289;-92
2022/08/03 12:10:54;;;;;;;;;1.00;1.00;;;;;68.25;24.38;101064.50;6304101;22;45361;-93
2022/08/03 12:13:21;;;;;;;;;1.33;1.33;;;;;68.47;24.01;101063.75;6275615;22;45353;-93
2022/08/03 12:15:54;;;;;;;;;0.67;0.67;;;;;68.71;24.11;101061.81;6303933;22;45558;-94
2022/08/03 12:18:21;;;;;;;;;1.00;1.00;;;;;68.95;22.30;101067.25;6302453;22;45556;-94
2022/08/03 12:20:49;;;;;;;;;2.00;2.00;;;;;69.16;23.56;101072.50;6276584;22;45394;-93
2022/08/03 12:23:15;;;;;;;;;2.00;0.00;;;;;69.35;23.26;101067.72;6303613;22;45432;-93
2022/08/03 12:25:42;;;;;;;;;0.25;0.00;;;;;69.52;23.16;101067.00;6275952;22;46984;-93
2022/08/03 12:28:21;;;;;;;;;2.25;2.00;;;;;69.72;23.07;101056.16;6274716;22;45335;-93
2022/08/03 12:30:49;;;;;;;;;3.50;2.00;;;;;69.98;22.77;101058.31;6304862;22;45339;-93
2022/08/03 12:33:19;;;;;;;;;1.75;1.75;;;;;70.17;22.51;101060.88;6274263;22;45377;-93
2022/08/03 12:36:02;;;;;;;;;1.00;1.00;;;;;70.25;22.07;101056.38;6303642;22;45298;-93
2022/08/03 12:38:30;;;;;;;;;1.75;1.75;;;;;70.28;22.26;101057.72;6275802;22;45211;-93
2022/08/03 12:41:00;;;;;;;;;1.00;1.00;;;;;70.38;21.58;101051.66;6303540;22;45212;-93
2022/08/03 12:43:26;;;;;;;;;1.50;1.00;;;;;70.55;21.55;101049.97;6274841;22;45306;-94
2022/08/03 12:46:06;;;;;;;;;2.00;1.00;;;;;70.67;21.62;101049.31;6303234;22;46444;-94
2022/08/03 12:48:31;;;;;;;;;1.00;1.00;;;;;70.89;21.54;101046.59;6274137;22;45302;-93
2022/08/03 12:51:08;;;;;;;;;1.00;1.00;;;;;71.14;21.35;101041.19;6304020;22;45190;-94
2022/08/03 12:53:33;;;;;;;;;1.00;1.00;;;;;71.34;20.96;101033.88;6303490;22;45312;-93
2022/08/03 12:56:04;;;;;;;;;1.50;1.50;;;;;71.59;20.68;101039.91;6303181;22;45316;-93
2022/08/03 12:58:32;;;;;;;;;1.50;1.50;;;;;71.84;20.81;101042.16;6304463;22;45190;-92
2022/08/03 13:00:57;;;;;;;;;1.50;1.50;;;;;72.24;20.95;101037.19;6305149;22;45343;-93
2022/08/03 13:03:23;;;;;;;;;3.50;2.00;;;;;72.76;20.23;101028.50;6304380;22;45407;-92
2022/08/03 13:05:48;;;;;;;;;2.00;2.00;;;;;73.09;20.13;101027.69;6305015;22;46697;-93
2022/08/03 13:08:22;;;;;;;;;1.50;1.50;;;;;73.63;20.41;101027.06;6277058;22;45361;-93
2022/08/03 13:10:47;;;;;;;;;2.00;2.00;;;;;74.11;20.33;101021.63;6305485;22;45392;-94
2022/08/03 13:13:13;;;;;;;;;2.00;2.00;;;;;74.58;19.81;101022.22;6304308;22;45578;-94
2022/08/03 13:15:39;;;;;;;;;1.75;1.75;;;;;74.98;19.18;101031.22;6304861;22;45303;-93
2022/08/03 13:18:04;;;;;;;;;1.00;0.75;;;;;75.19;18.87;101014.81;6301864;22;45470;-92
2022/08/03 13:20:30;;;;;;;;;2.00;2.00;;;;;75.34;19.24;101014.00;6277146;22;45392;-92
2022/08/03 13:22:55;;;;;;;;;2.00;2.00;;;;;75.71;18.35;101008.25;6306468;22;45308;-94
2022/08/03 13:25:21;;;;;;;;;2.00;2.00;;;;;76.06;18.21;101013.25;6308339;22;45564;-93
2022/08/03 13:27:47;;;;;;;;;0.75;0.75;;;;;76.44;18.39;101007.00;6307124;22;45376;-93
2022/08/03 13:30:13;;;;;;;;;2.25;1.00;;;;;76.89;18.00;101000.84;6307438;22;45413;-94
2022/08/03 13:32:39;;;;;;;;;2.25;2.25;;;;;77.15;17.65;101004.22;6307821;22;45282;-94
2022/08/03 13:35:05;;;;;;;;;2.00;2.00;;;;;77.44;17.91;101002.63;6307380;22;46590;-93
2022/08/03 13:37:31;;;;;;;;;3.50;3.50;;;;;77.74;18.04;101011.84;6310651;22;45234;-92
2022/08/03 13:39:57;;;;;;;;;4.00;4.00;;;;;78.02;17.51;101001.84;6311984;22;45285;-93
2022/08/03 13:42:22;;;;;;;;;4.00;4.00;;;;;78.29;17.20;101001.78;6282939;22;45269;-93
2022/08/03 13:44:48;;;;;;;;;3.75;3.75;;;;;78.58;17.52;100998.38;6283010;22;47946;-93
2022/08/03 13:47:13;;;;;;;;;6.67;6.67;;;;;78.77;17.20;101000.22;6311299;22;51548;-92
2022/08/03 13:49:38;;;;;;;;;7.00;7.00;;;;;78.98;17.44;101000.88;6308753;22;45422;-92
2022/08/03 13:52:04;;;;;;;;;7.33;7.33;;;;;79.20;17.29;100992.31;6279527;22;45362;-94
2022/08/03 13:54:29;;;;;;;;;7.67;7.67;;;;;79.53;17.69;100990.47;6305479;22;45223;-94
2022/08/03 13:56:55;;;;;;;;;8.67;8.67;;;;;79.89;17.38;100991.94;6275912;22;45385;-94
2022/08/03 13:59:22;;;;;;;;;11.25;11.25;;;;;80.18;17.04;100992.06;6305024;22;45333;-94
2022/08/03 14:01:49;;;;;;;;;13.00;11.50;;;;;80.43;17.21;100996.28;6305119;22;45293;-94
2022/08/03 14:04:14;;;;;;;;;16.50;16.50;;;;;80.53;16.59;100995.50;6305416;22;45354;-94
2022/08/03 14:06:43;;;;;;;;;12.50;12.50;;;;;80.41;16.30;100987.13;6276624;22;45505;-95
2022/08/03 14:09:08;;;;;;;;;16.50;16.50;;;;;79.96;16.49;100970.75;6305476;22;45366;-94
2022/08/03 14:11:33;;;;;;;;;17.75;17.75;;;;;79.41;16.81;100973.34;6276417;22;45369;-95
2022/08/03 14:13:59;;;;;;;;;17.75;17.75;;;;;78.74;16.99;100971.13;6276918;22;47172;-95
2022/08/03 14:16:24;;;;;;;;;17.75;17.25;;;;;78.10;17.19;100962.91;6304721;22;45344;-92
2022/08/03 14:18:50;;;;;;;;;15.50;14.50;;;;;77.53;17.65;100949.28;6304376;22;45332;-94
2022/08/03 14:21:15;;;;;;;;;15.00;15.00;;;;;77.03;17.11;100950.09;6277642;22;45400;-93
2022/08/03 14:23:40;;;;;;;;;18.00;18.00;;;;;76.58;17.58;100942.69;6305062;22;45326;-94
2022/08/03 14:26:07;;;;;;;;;14.25;14.25;;;;;76.31;18.40;100949.19;6304629;22;45352;-93
2022/08/03 14:28:32;;;;;;;;;8.00;7.75;;;;;76.07;17.97;100947.44;6304118;22;45286;-95
2022/08/03 14:30:58;;;;;;;;;13.50;13.50;;;;;75.74;17.53;100943.75;6277865;22;45263;-93
2022/08/03 14:33:23;;;;;;;;;13.50;13.50;;;;;75.49;18.09;100941.94;6304414;22;45991;-94
2022/08/03 14:35:50;;;;;;;;;12.50;12.50;;;;;75.31;17.93;100935.72;6277767;22;45338;-92
2022/08/03 14:38:17;;;;;;;;;11.00;11.00;;;;;74.80;18.84;100935.25;6305406;22;45310;-94
2022/08/03 14:40:43;;;;;;;;;9.00;9.00;;;;;74.56;18.75;100925.50;6305810;22;45259;-93
2022/08/03 14:43:09;;;;;;;;;9.00;9.00;;;;;74.51;18.53;100926.56;6303188;22;46394;-93
2022/08/03 14:45:34;;;;;;;;;9.50;9.50;;;;;74.44;18.41;100923.50;6277140;22;45286;-94
2022/08/03 14:48:00;;;;;;;;;3.75;3.75;;;;;74.30;18.79;100921.03;6304303;22;45272;-93
2022/08/03 14:50:27;;;;;;;;;10.00;10.00;;;;;73.70;18.24;100920.41;6276714;22;45382;-94
2022/08/03 14:52:53;;;;;;;;;8.67;8.67;;;;;71.77;18.83;100907.34;6276927;22;46557;-93
2022/08/03 14:55:18;;;;;;;;;5.67;5.67;;;;;69.43;19.78;100906.22;6278632;22;45164;-92
2022/08/03 14:57:44;;;;;;;;;3.75;3.75;;;;;66.98;20.05;100902.81;6312403;22;45250;-93
2022/08/03 15:00:10;;;;;;;;;2.00;2.00;;;;;64.69;20.99;100895.84;6314007;22;45235;-93
2022/08/03 15:02:35;;;;;;;;;1.75;1.25;;;;;62.48;22.03;100893.78;6310506;22;46568;-94
2022/08/03 15:05:00;;;;;;;;;1.00;1.00;;;;;60.43;22.98;100892.28;6303893;22;52594;-94
2022/08/03 15:07:26;;;;;;;;;1.00;1.00;;;;;58.57;23.97;100881.41;6276578;22;45293;-94
2022/08/03 15:09:51;;;;;;;;;1.00;1.00;;;;;56.90;24.96;100886.81;6277074;22;45537;-93
2022/08/03 15:12:16;;;;;;;;;1.00;1.00;;;;;55.36;25.31;100870.34;6303154;22;50210;-94
2022/08/03 15:14:42;;;;;;;;;1.75;1.00;;;;;53.92;25.91;100866.47;6276842;22;47236;-94
2022/08/03 15:17:07;;;;;;;;;1.00;1.00;;;;;52.69;25.96;100873.84;6303880;22;45416;-92
2022/08/03 15:19:33;;;;;;;;;0.00;0.00;;;;;51.61;26.76;100874.91;6304325;22;45427;-92
2022/08/03 15:21:58;;;;;;;;;0.00;0.00;;;;;50.67;27.83;100882.06;6304892;22;46226;-94
2022/08/03 15:24:23;;;;;;;;;2.00;1.00;;;;;49.75;27.54;100866.34;6304717;22;45306;-91
2022/08/03 15:26:50;;;;;;;;;0.00;0.00;;;;;49.03;28.09;100861.00;6275135;22;61699;-92
2022/08/03 15:29:15;;;;;;;;;0.00;0.00;;;;;48.32;28.66;100869.16;6276708;22;45295;-93
2022/08/03 15:31:40;;;;;;;;;0.00;0.00;;;;;47.63;29.88;100857.41;6280750;22;50499;-93
2022/08/03 15:34:06;;;;;;;;;1.33;1.33;;;;;47.06;29.98;100855.28;6281089;22;48857;-94
2022/08/03 15:36:31;;;;;;;;;0.00;0.00;;;;;46.60;29.98;100855.66;6309917;22;45277;-91
2022/08/03 15:38:57;;;;;;;;;1.00;1.00;;;;;46.10;30.80;100853.47;6283368;22;45237;-92
2022/08/03 15:41:22;;;;;;;;;0.00;0.00;;;;;45.69;31.54;100854.03;6279669;22;47151;-93
2022/08/03 15:43:47;;;;;;;;;0.00;0.00;;;;;45.29;31.80;100849.69;6276048;22;48127;-92
2022/08/03 15:46:13;;;;;;;;;0.67;0.00;;;;;44.89;32.81;100840.81;6305154;22;45219;-93
2022/08/03 15:48:42;;;;;;;;;0.00;0.00;;;;;44.54;32.93;100844.16;6303992;22;45253;-92
2022/08/03 15:51:07;;;;;;;;;1.00;1.00;;;;;44.24;33.24;100845.31;6304603;22;45474;-93
2022/08/03 15:53:34;;;;;;;;;1.00;1.00;;;;;43.87;33.67;100845.09;6276455;22;45610;-93
2022/08/03 15:56:00;;;;;;;;;0.33;0.33;;;;;43.56;33.88;100843.38;6276253;22;45384;-93
2022/08/03 15:58:28;;;;;;;;;0.00;0.00;;;;;43.26;34.27;100840.63;6303528;22;45236;-92
2022/08/03 16:00:56;;;;;;;;;0.67;0.00;;;;;42.95;34.72;100847.13;6304507;22;45347;-94
2022/08/03 16:03:22;;;;;;;;;0.00;0.00;;;;;42.63;34.26;100840.75;6275474;22;45298;-92
2022/08/03 16:05:47;;;;;;;;;1.00;1.00;;;;;42.46;34.45;100844.19;6276585;22;45520;-93
2022/08/03 16:08:12;;;;;;;;;0.00;0.00;;;;;42.21;34.56;100831.59;6303874;22;45287;-92
2022/08/03 16:10:39;;;;;;;;;1.00;1.00;;;;;42.06;35.28;100827.47;6303807;22;51341;-92
2022/08/03 16:13:05;;;;;;;;;4.00;4.00;;;;;41.92;35.71;100835.03;6303156;22;45413;-93
2022/08/03 16:15:30;;;;;;;;;1.67;1.67;;;;;41.74;35.72;100823.75;6277010;22;45434;-92
2022/08/03 16:17:55;;;;;;;;;1.00;1.00;;;;;41.62;35.79;100833.97;6303934;22;45392;-93
2022/08/03 16:20:21;;;;;;;;;2.00;2.00;;;;;41.42;36.62;100831.88;6276180;22;48300;-92
2022/08/03 16:22:47;;;;;;;;;0.00;0.00;;;;;41.28;36.81;100832.22;6307720;22;45302;-93
2022/08/03 16:25:14;;;;;;;;;3.00;0.00;;;;;41.06;36.72;100829.38;6288584;22;45305;-93
2022/08/03 16:27:40;;;;;;;;;1.00;1.00;;;;;40.89;36.78;100819.78;6278091;22;45410;-93
2022/08/03 16:30:08;;;;;;;;;1.67;1.00;;;;;40.74;37.12;100824.72;6277541;22;47441;-93
2022/08/03 16:32:33;;;;;;;;;1.67;1.67;;;;;40.62;37.24;100821.06;6305467;22;45357;-93
2022/08/03 16:34:59;;;;;;;;;0.00;0.00;;;;;40.46;37.74;100811.34;6279414;22;45275;-93
2022/08/03 16:37:25;;;;;;;;;0.00;0.00;;;;;40.33;38.35;100815.06;6278849;22;45392;-93
2022/08/03 16:39:50;;;;;;;;;0.67;0.67;;;;;40.18;38.36;100808.94;6277107;22;47190;-93
2022/08/03 16:42:15;;;;;;;;;1.33;1.33;;;;;40.06;38.57;100812.66;6306347;22;45288;-93
2022/08/03 16:44:41;;;;;;;;;2.00;2.00;;;;;39.87;38.85;100811.41;6277990;22;51566;-92
2022/08/03 16:47:07;;;;;;;;;1.00;1.00;;;;;39.71;39.07;100814.47;6305478;22;45273;-93
2022/08/03 16:49:32;;;;;;;;;1.00;0.00;;;;;39.55;39.50;100807.44;6305032;22;45446;-93
2022/08/03 16:51:57;;;;;;;;;1.33;1.33;;;;;39.39;39.92;100805.00;6277621;22;45622;-92
2022/08/03 16:54:23;;;;;;;;;2.00;1.00;;;;;39.28;39.39;100803.91;6305096;22;45206;-93
2022/08/03 16:56:48;;;;;;;;;1.00;1.00;;;;;39.17;39.30;100802.03;6305404;22;45369;-92
2022/08/03 16:59:13;;;;;;;;;0.00;0.00;;;;;39.10;39.47;100803.47;6277293;22;47169;-92
2022/08/03 17:01:39;;;;;;;;;1.00;1.00;;;;;39.06;39.56;100799.22;6281251;22;45662;-93
2022/08/03 17:04:05;;;;;;;;;0.33;0.33;;;;;39.02;39.42;100798.56;6312679;22;45246;-92
2022/08/03 17:06:36;;;;;;;;;2.67;0.67;;;;;38.98;39.40;100806.16;6286341;22;45233;-93
2022/08/03 17:09:17;;;;;;;;;1.00;1.00;;;;;38.91;39.42;100793.03;6313958;22;45573;-92
2022/08/03 17:11:44;;;;;;;;;1.00;1.00;;;;;38.87;39.55;100787.75;6325322;22;45440;-91
2022/08/03 17:14:11;;;;;;;;;0.00;0.00;;;;;38.84;39.58;100792.63;6288554;22;45270;-93
2022/08/03 17:16:37;;;;;;;;;1.67;0.00;;;;;38.79;39.82;100790.16;6314211;22;45314;-95
2022/08/03 17:19:06;;;;;;;;;1.67;1.67;;;;;38.73;39.56;100794.28;6287301;22;48152;-92
2022/08/03 17:21:37;;;;;;;;;1.00;0.00;;;;;38.65;39.38;100785.72;6289358;22;45219;-93
2022/08/03 17:24:13;;;;;;;;;1.33;0.00;;;;;38.63;39.86;100787.72;6316464;22;45222;-93
2022/08/03 17:26:45;;;;;;;;;3.00;1.00;;;;;38.56;39.85;100782.69;6315901;22;45183;-93
2022/08/03 17:29:13;;;;;;;;;0.00;0.00;;;;;38.50;39.91;100785.00;6287342;22;47175;-93
2022/08/03 17:31:40;;;;;;;;;1.00;1.00;;;;;38.39;40.17;100777.56;6315811;22;45943;-92
2022/08/03 17:34:06;;;;;;;;;2.00;0.00;;;;;38.32;39.82;100775.22;6287625;22;45282;-93
2022/08/03 17:36:32;;;;;;;;;0.00;0.00;;;;;38.28;40.23;100779.19;6284500;22;45254;-93
2022/08/03 17:38:58;;;;;;;;;1.00;1.00;;;;;38.22;40.67;100776.88;6283485;22;48327;-93
2022/08/03 17:41:25;;;;;;;;;0.33;0.33;;;;;38.15;41.02;100778.31;6305434;22;45336;-93
2022/08/03 17:43:51;;;;;;;;;1.00;1.00;;;;;38.09;41.18;100779.66;6305111;22;45325;-93
2022/08/03 17:46:18;;;;;;;;;1.00;1.00;;;;;37.99;40.64;100771.22;6277947;22;45313;-93
2022/08/03 17:48:44;;;;;;;;;0.00;0.00;;;;;37.96;40.94;100783.25;6304559;22;45547;-94
2022/08/03 17:51:35;;;;;;;;;0.00;0.00;;;;;37.93;40.72;100786.25;6277202;22;45244;-94
2022/08/03 17:54:14;;;;;;;;;0.00;0.00;;;;;37.83;40.75;100776.91;6277166;22;45528;-94
2022/08/03 17:57:04;;;;;;;;;0.00;0.00;;;;;37.78;41.34;100785.44;6304978;22;45372;-93
2022/08/03 17:59:45;;;;;;;;;1.00;1.00;;;;;37.68;41.40;100776.97;6312586;22;46496;-93
2022/08/03 18:05:20;;;;;;;;;1.00;0.00;;;;;37.41;41.35;100786.13;6310489;22;45178;-93
2022/08/03 18:07:50;;;;;;;;;1.00;1.00;;;;;37.32;41.52;100795.81;6277851;22;45245;-93
2022/08/03 18:10:21;;;;;;;;;1.00;1.00;;;;;37.19;42.03;100782.97;6277209;22;47176;-92
2022/08/03 18:12:51;;;;;;;;;2.00;1.00;;;;;37.05;42.14;100785.78;6276867;22;45821;-92
2022/08/03 18:15:22;;;;;;;;;1.00;1.00;;;;;36.96;42.44;100784.53;6277671;22;45358;-93
2022/08/03 18:17:51;;;;;;;;;1.00;1.00;;;;;36.88;42.68;100796.81;6277084;22;45524;-93
2022/08/03 18:20:18;;;;;;;;;3.33;3.33;;;;;36.76;42.80;100800.38;6276757;22;48143;-93
2022/08/03 18:22:44;;;;;;;;;1.33;1.33;;;;;36.65;42.58;100787.41;6305630;22;45328;-93
2022/08/03 18:25:10;;;;;;;;;1.00;1.00;;;;;36.58;42.66;100795.13;6277506;22;45357;-94
2022/08/03 18:27:37;;;;;;;;;2.00;2.00;;;;;36.46;43.18;100785.91;6277945;22;45354;-93
2022/08/03 18:30:03;;;;;;;;;3.00;1.00;;;;;36.33;42.88;100789.38;6282433;22;48397;-93
2022/08/03 23:37:51;;;;;;;;;3.33;3.33;;;;;29.06;66.90;100573.47;6303378;22;45791;-96
